sensor_id;sensor_type;location;lat;lon;timestamp;P1;durP1;ratioP1;P2;durP2;ratioP2
70908;SDS011;58554;52.006;5.926;2022-11-21T00:00:56;30.20;;;15.75;;
70908;SDS011;58554;52.006;5.926;2022-11-21T00:03:24;31.17;;;15.43;;
70908;SDS011;58554;52.006;5.926;2022-11-21T00:05:53;29.80;;;14.97;;
70908;SDS011;58554;52.006;5.926;2022-11-21T00:08:20;29.77;;;15.32;;
70908;SDS011;58554;52.006;5.926;2022-11-21T00:10:47;29.27;;;14.80;;
70908;SDS011;58554;52.006;5.926;2022-11-21T00:13:14;29.38;;;15.48;;
70908;SDS011;58554;52.006;5.926;2022-11-21T00:15:45;31.73;;;15.53;;
70908;SDS011;58554;52.006;5.926;2022-11-21T00:18:13;27.57;;;14.67;;
70908;SDS011;58554;52.006;5.926;2022-11-21T00:20:40;31.63;;;15.57;;
70908;SDS011;58554;52.006;5.926;2022-11-21T00:23:10;30.10;;;14.77;;
70908;SDS011;58554;52.006;5.926;2022-11-21T00:25:37;33.10;;;15.57;;
70908;SDS011;58554;52.006;5.926;2022-11-21T00:28:04;31.27;;;15.60;;
70908;SDS011;58554;52.006;5.926;2022-11-21T00:30:31;31.58;;;15.82;;
70908;SDS011;58554;52.006;5.926;2022-11-21T00:32:58;30.27;;;14.87;;
70908;SDS011;58554;52.006;5.926;2022-11-21T00:35:24;32.60;;;16.17;;
70908;SDS011;58554;52.006;5.926;2022-11-21T00:37:51;29.80;;;15.13;;
70908;SDS011;58554;52.006;5.926;2022-11-21T00:40:20;32.47;;;15.77;;
70908;SDS011;58554;52.006;5.926;2022-11-21T00:42:47;28.97;;;14.53;;
70908;SDS011;58554;52.006;5.926;2022-11-21T00:45:13;33.57;;;16.00;;
70908;SDS011;58554;52.006;5.926;2022-11-21T00:47:40;33.08;;;16.23;;
70908;SDS011;58554;52.006;5.926;2022-11-21T00:50:08;30.87;;;14.87;;
70908;SDS011;58554;52.006;5.926;2022-11-21T00:52:35;30.30;;;15.30;;
70908;SDS011;58554;52.006;5.926;2022-11-21T00:55:02;30.00;;;15.27;;
70908;SDS011;58554;52.006;5.926;2022-11-21T00:57:31;28.70;;;14.70;;
70908;SDS011;58554;52.006;5.926;2022-11-21T00:59:57;28.95;;;13.98;;
70908;SDS011;58554;52.006;5.926;2022-11-21T01:02:24;29.23;;;15.23;;
70908;SDS011;58554;52.006;5.926;2022-11-21T01:04:50;29.20;;;15.00;;
70908;SDS011;58554;52.006;5.926;2022-11-21T01:07:17;29.57;;;15.30;;
70908;SDS011;58554;52.006;5.926;2022-11-21T01:09:43;28.00;;;14.67;;
70908;SDS011;58554;52.006;5.926;2022-11-21T01:12:10;28.85;;;14.45;;
70908;SDS011;58554;52.006;5.926;2022-11-21T01:14:39;29.43;;;14.80;;
70908;SDS011;58554;52.006;5.926;2022-11-21T01:17:05;28.97;;;14.83;;
70908;SDS011;58554;52.006;5.926;2022-11-21T01:19:32;31.10;;;14.77;;
70908;SDS011;58554;52.006;5.926;2022-11-21T01:21:58;33.00;;;15.37;;
70908;SDS011;58554;52.006;5.926;2022-11-21T01:24:25;29.95;;;15.02;;
70908;SDS011;58554;52.006;5.926;2022-11-21T01:26:51;30.88;;;15.57;;
70908;SDS011;58554;52.006;5.926;2022-11-21T01:29:18;30.17;;;15.60;;
70908;SDS011;58554;52.006;5.926;2022-11-21T01:31:47;31.60;;;15.68;;
70908;SDS011;58554;52.006;5.926;2022-11-21T01:34:13;33.30;;;15.93;;
70908;SDS011;58554;52.006;5.926;2022-11-21T01:36:40;32.15;;;15.60;;
70908;SDS011;58554;52.006;5.926;2022-11-21T01:39:07;33.63;;;16.40;;
70908;SDS011;58554;52.006;5.926;2022-11-21T01:41:36;32.07;;;15.67;;
70908;SDS011;58554;52.006;5.926;2022-11-21T01:44:09;34.60;;;16.25;;
70908;SDS011;58554;52.006;5.926;2022-11-21T01:46:43;32.17;;;15.02;;
70908;SDS011;58554;52.006;5.926;2022-11-21T01:49:14;30.63;;;15.10;;
70908;SDS011;58554;52.006;5.926;2022-11-21T01:51:46;31.80;;;16.15;;
70908;SDS011;58554;52.006;5.926;2022-11-21T01:54:21;30.00;;;15.68;;
70908;SDS011;58554;52.006;5.926;2022-11-21T01:56:56;33.67;;;16.43;;
70908;SDS011;58554;52.006;5.926;2022-11-21T01:59:31;30.23;;;15.50;;
70908;SDS011;58554;52.006;5.926;2022-11-21T02:02:07;30.20;;;15.75;;
70908;SDS011;58554;52.006;5.926;2022-11-21T02:04:38;32.50;;;15.23;;
70908;SDS011;58554;52.006;5.926;2022-11-21T02:07:08;31.52;;;15.77;;
70908;SDS011;58554;52.006;5.926;2022-11-21T02:09:40;29.60;;;14.93;;
70908;SDS011;58554;52.006;5.926;2022-11-21T02:12:14;33.17;;;15.52;;
70908;SDS011;58554;52.006;5.926;2022-11-21T02:14:48;32.03;;;15.53;;
70908;SDS011;58554;52.006;5.926;2022-11-21T02:17:19;31.40;;;15.75;;
70908;SDS011;58554;52.006;5.926;2022-11-21T02:19:47;31.10;;;14.93;;
70908;SDS011;58554;52.006;5.926;2022-11-21T02:22:20;31.37;;;15.10;;
70908;SDS011;58554;52.006;5.926;2022-11-21T02:25:05;32.50;;;15.23;;
70908;SDS011;58554;52.006;5.926;2022-11-21T02:27:36;31.40;;;15.47;;
70908;SDS011;58554;52.006;5.926;2022-11-21T02:30:05;31.08;;;15.48;;
70908;SDS011;58554;52.006;5.926;2022-11-21T02:32:36;32.90;;;15.77;;
70908;SDS011;58554;52.006;5.926;2022-11-21T02:35:06;31.77;;;15.60;;
70908;SDS011;58554;52.006;5.926;2022-11-21T02:37:34;32.03;;;15.35;;
70908;SDS011;58554;52.006;5.926;2022-11-21T02:40:05;31.33;;;15.83;;
70908;SDS011;58554;52.006;5.926;2022-11-21T02:42:40;31.30;;;14.97;;
70908;SDS011;58554;52.006;5.926;2022-11-21T02:45:18;33.97;;;16.17;;
70908;SDS011;58554;52.006;5.926;2022-11-21T02:47:50;31.17;;;15.57;;
70908;SDS011;58554;52.006;5.926;2022-11-21T02:50:22;32.78;;;15.32;;
70908;SDS011;58554;52.006;5.926;2022-11-21T02:52:53;31.70;;;15.37;;
70908;SDS011;58554;52.006;5.926;2022-11-21T02:55:22;31.30;;;15.00;;
70908;SDS011;58554;52.006;5.926;2022-11-21T02:57:50;32.30;;;15.23;;
70908;SDS011;58554;52.006;5.926;2022-11-21T03:00:18;33.60;;;15.77;;
70908;SDS011;58554;52.006;5.926;2022-11-21T03:02:46;31.60;;;15.53;;
70908;SDS011;58554;52.006;5.926;2022-11-21T03:05:15;33.13;;;15.07;;
70908;SDS011;58554;52.006;5.926;2022-11-21T03:07:44;32.03;;;14.95;;
70908;SDS011;58554;52.006;5.926;2022-11-21T03:10:12;31.23;;;16.03;;
70908;SDS011;58554;52.006;5.926;2022-11-21T03:12:42;31.20;;;14.50;;
70908;SDS011;58554;52.006;5.926;2022-11-21T03:15:10;32.13;;;14.38;;
70908;SDS011;58554;52.006;5.926;2022-11-21T03:17:39;27.30;;;13.37;;
70908;SDS011;58554;52.006;5.926;2022-11-21T03:20:07;30.95;;;14.68;;
70908;SDS011;58554;52.006;5.926;2022-11-21T03:22:36;29.60;;;14.17;;
70908;SDS011;58554;52.006;5.926;2022-11-21T03:25:02;31.38;;;14.57;;
70908;SDS011;58554;52.006;5.926;2022-11-21T03:27:30;32.30;;;14.50;;
70908;SDS011;58554;52.006;5.926;2022-11-21T03:29:59;31.97;;;14.73;;
70908;SDS011;58554;52.006;5.926;2022-11-21T03:32:26;33.30;;;15.23;;
70908;SDS011;58554;52.006;5.926;2022-11-21T03:34:52;33.00;;;15.23;;
70908;SDS011;58554;52.006;5.926;2022-11-21T03:37:19;30.13;;;14.55;;
70908;SDS011;58554;52.006;5.926;2022-11-21T03:39:45;31.63;;;15.13;;
70908;SDS011;58554;52.006;5.926;2022-11-21T03:42:11;31.87;;;14.70;;
70908;SDS011;58554;52.006;5.926;2022-11-21T03:44:38;31.03;;;14.63;;
70908;SDS011;58554;52.006;5.926;2022-11-21T03:47:07;33.70;;;15.67;;
70908;SDS011;58554;52.006;5.926;2022-11-21T03:49:33;32.27;;;14.53;;
70908;SDS011;58554;52.006;5.926;2022-11-21T03:52:00;32.67;;;16.07;;
70908;SDS011;58554;52.006;5.926;2022-11-21T03:54:26;32.65;;;15.77;;
70908;SDS011;58554;52.006;5.926;2022-11-21T03:56:53;32.93;;;14.43;;
70908;SDS011;58554;52.006;5.926;2022-11-21T03:59:19;34.70;;;15.63;;
70908;SDS011;58554;52.006;5.926;2022-11-21T04:01:45;34.43;;;15.50;;
70908;SDS011;58554;52.006;5.926;2022-11-21T04:04:15;31.95;;;15.00;;
70908;SDS011;58554;52.006;5.926;2022-11-21T04:06:41;32.10;;;14.83;;
70908;SDS011;58554;52.006;5.926;2022-11-21T04:09:08;31.92;;;15.48;;
70908;SDS011;58554;52.006;5.926;2022-11-21T04:11:34;31.63;;;15.83;;
70908;SDS011;58554;52.006;5.926;2022-11-21T04:14:01;32.77;;;14.47;;
70908;SDS011;58554;52.006;5.926;2022-11-21T04:16:28;35.47;;;15.98;;
70908;SDS011;58554;52.006;5.926;2022-11-21T04:18:54;33.90;;;15.73;;
70908;SDS011;58554;52.006;5.926;2022-11-21T04:21:23;31.27;;;14.47;;
70908;SDS011;58554;52.006;5.926;2022-11-21T04:23:49;34.80;;;15.73;;
70908;SDS011;58554;52.006;5.926;2022-11-21T04:26:16;33.40;;;14.97;;
70908;SDS011;58554;52.006;5.926;2022-11-21T04:28:42;32.80;;;15.05;;
70908;SDS011;58554;52.006;5.926;2022-11-21T04:31:09;34.57;;;14.43;;
70908;SDS011;58554;52.006;5.926;2022-11-21T04:33:35;34.33;;;15.07;;
70908;SDS011;58554;52.006;5.926;2022-11-21T04:36:02;32.43;;;15.17;;
70908;SDS011;58554;52.006;5.926;2022-11-21T04:38:32;35.30;;;15.70;;
70908;SDS011;58554;52.006;5.926;2022-11-21T04:40:58;33.03;;;15.13;;
70908;SDS011;58554;52.006;5.926;2022-11-21T04:43:25;30.60;;;13.60;;
70908;SDS011;58554;52.006;5.926;2022-11-21T04:45:51;30.35;;;14.45;;
70908;SDS011;58554;52.006;5.926;2022-11-21T04:48:18;36.23;;;15.60;;
70908;SDS011;58554;52.006;5.926;2022-11-21T04:50:44;35.15;;;15.20;;
70908;SDS011;58554;52.006;5.926;2022-11-21T04:53:11;32.80;;;14.60;;
70908;SDS011;58554;52.006;5.926;2022-11-21T04:55:40;33.37;;;14.07;;
70908;SDS011;58554;52.006;5.926;2022-11-21T04:58:07;35.25;;;14.93;;
70908;SDS011;58554;52.006;5.926;2022-11-21T05:00:33;32.40;;;14.80;;
70908;SDS011;58554;52.006;5.926;2022-11-21T05:03:01;35.20;;;15.27;;
70908;SDS011;58554;52.006;5.926;2022-11-21T05:05:28;34.97;;;15.67;;
70908;SDS011;58554;52.006;5.926;2022-11-21T05:07:55;36.33;;;15.88;;
70908;SDS011;58554;52.006;5.926;2022-11-21T05:10:21;36.93;;;14.87;;
70908;SDS011;58554;52.006;5.926;2022-11-21T05:12:57;36.95;;;14.88;;
70908;SDS011;58554;52.006;5.926;2022-11-21T05:15:25;32.80;;;14.33;;
70908;SDS011;58554;52.006;5.926;2022-11-21T05:17:51;34.97;;;15.57;;
70908;SDS011;58554;52.006;5.926;2022-11-21T05:20:18;37.70;;;15.30;;
70908;SDS011;58554;52.006;5.926;2022-11-21T05:22:44;36.90;;;15.87;;
70908;SDS011;58554;52.006;5.926;2022-11-21T05:25:16;37.47;;;15.93;;
70908;SDS011;58554;52.006;5.926;2022-11-21T05:27:42;36.10;;;15.23;;
70908;SDS011;58554;52.006;5.926;2022-11-21T05:30:12;35.40;;;14.15;;
70908;SDS011;58554;52.006;5.926;2022-11-21T05:32:40;33.23;;;12.37;;
70908;SDS011;58554;52.006;5.926;2022-11-21T05:35:08;34.25;;;13.15;;
70908;SDS011;58554;52.006;5.926;2022-11-21T05:37:35;34.07;;;13.10;;
70908;SDS011;58554;52.006;5.926;2022-11-21T05:40:01;37.40;;;12.67;;
70908;SDS011;58554;52.006;5.926;2022-11-21T05:42:29;30.20;;;12.63;;
70908;SDS011;58554;52.006;5.926;2022-11-21T05:44:55;28.83;;;12.67;;
70908;SDS011;58554;52.006;5.926;2022-11-21T05:47:24;28.87;;;12.07;;
70908;SDS011;58554;52.006;5.926;2022-11-21T05:49:51;30.97;;;12.47;;
70908;SDS011;58554;52.006;5.926;2022-11-21T05:52:17;35.13;;;12.60;;
70908;SDS011;58554;52.006;5.926;2022-11-21T05:54:44;31.93;;;12.53;;
70908;SDS011;58554;52.006;5.926;2022-11-21T05:57:10;46.67;;;13.40;;
70908;SDS011;58554;52.006;5.926;2022-11-21T05:59:36;33.00;;;13.85;;
70908;SDS011;58554;52.006;5.926;2022-11-21T06:02:03;34.60;;;13.03;;
70908;SDS011;58554;52.006;5.926;2022-11-21T06:04:32;40.90;;;14.00;;
70908;SDS011;58554;52.006;5.926;2022-11-21T06:07:00;52.97;;;13.97;;
70908;SDS011;58554;52.006;5.926;2022-11-21T06:09:26;37.50;;;13.70;;
70908;SDS011;58554;52.006;5.926;2022-11-21T06:11:53;47.80;;;14.90;;
70908;SDS011;58554;52.006;5.926;2022-11-21T06:14:19;34.83;;;13.67;;
70908;SDS011;58554;52.006;5.926;2022-11-21T06:16:45;42.33;;;14.25;;
70908;SDS011;58554;52.006;5.926;2022-11-21T06:19:12;63.50;;;15.33;;
70908;SDS011;58554;52.006;5.926;2022-11-21T06:21:41;51.50;;;15.13;;
70908;SDS011;58554;52.006;5.926;2022-11-21T06:24:07;40.13;;;14.97;;
70908;SDS011;58554;52.006;5.926;2022-11-21T06:26:34;36.90;;;14.95;;
70908;SDS011;58554;52.006;5.926;2022-11-21T06:29:01;41.57;;;14.67;;
70908;SDS011;58554;52.006;5.926;2022-11-21T06:31:27;64.15;;;15.40;;
70908;SDS011;58554;52.006;5.926;2022-11-21T06:33:54;47.40;;;15.10;;
70908;SDS011;58554;52.006;5.926;2022-11-21T06:36:23;46.90;;;15.30;;
70908;SDS011;58554;52.006;5.926;2022-11-21T06:38:54;56.47;;;15.00;;
70908;SDS011;58554;52.006;5.926;2022-11-21T06:41:21;45.87;;;15.00;;
70908;SDS011;58554;52.006;5.926;2022-11-21T06:43:50;45.70;;;16.20;;
70908;SDS011;58554;52.006;5.926;2022-11-21T06:46:17;69.38;;;16.27;;
70908;SDS011;58554;52.006;5.926;2022-11-21T06:48:44;39.60;;;16.33;;
70908;SDS011;58554;52.006;5.926;2022-11-21T06:51:11;54.53;;;15.50;;
70908;SDS011;58554;52.006;5.926;2022-11-21T06:53:41;77.17;;;16.20;;
70908;SDS011;58554;52.006;5.926;2022-11-21T06:56:11;57.23;;;15.17;;
70908;SDS011;58554;52.006;5.926;2022-11-21T06:58:40;39.87;;;14.87;;
70908;SDS011;58554;52.006;5.926;2022-11-21T07:01:07;49.43;;;15.20;;
70908;SDS011;58554;52.006;5.926;2022-11-21T07:03:35;68.10;;;15.53;;
70908;SDS011;58554;52.006;5.926;2022-11-21T07:06:02;50.60;;;15.13;;
70908;SDS011;58554;52.006;5.926;2022-11-21T07:08:30;63.97;;;15.87;;
70908;SDS011;58554;52.006;5.926;2022-11-21T07:11:00;35.63;;;14.93;;
70908;SDS011;58554;52.006;5.926;2022-11-21T07:13:31;96.10;;;15.73;;
70908;SDS011;58554;52.006;5.926;2022-11-21T07:16:00;93.68;;;15.48;;
70908;SDS011;58554;52.006;5.926;2022-11-21T07:18:29;49.43;;;14.97;;
70908;SDS011;58554;52.006;5.926;2022-11-21T07:20:56;59.83;;;14.00;;
70908;SDS011;58554;52.006;5.926;2022-11-21T07:23:24;57.57;;;14.23;;
70908;SDS011;58554;52.006;5.926;2022-11-21T07:25:50;41.47;;;13.67;;
70908;SDS011;58554;52.006;5.926;2022-11-21T07:28:17;36.15;;;13.45;;
70908;SDS011;58554;52.006;5.926;2022-11-21T07:30:46;33.50;;;13.40;;
70908;SDS011;58554;52.006;5.926;2022-11-21T07:33:13;37.97;;;13.63;;
70908;SDS011;58554;52.006;5.926;2022-11-21T07:35:39;33.50;;;12.43;;
70908;SDS011;58554;52.006;5.926;2022-11-21T07:38:06;42.80;;;13.52;;
70908;SDS011;58554;52.006;5.926;2022-11-21T07:40:32;35.20;;;13.10;;
70908;SDS011;58554;52.006;5.926;2022-11-21T07:42:59;31.98;;;13.23;;
70908;SDS011;58554;52.006;5.926;2022-11-21T07:45:26;39.23;;;14.17;;
70908;SDS011;58554;52.006;5.926;2022-11-21T07:47:58;34.50;;;13.60;;
70908;SDS011;58554;52.006;5.926;2022-11-21T07:50:27;36.57;;;14.40;;
70908;SDS011;58554;52.006;5.926;2022-11-21T07:52:57;39.10;;;14.03;;
70908;SDS011;58554;52.006;5.926;2022-11-21T07:55:24;35.87;;;13.80;;
70908;SDS011;58554;52.006;5.926;2022-11-21T07:57:58;35.75;;;14.25;;
70908;SDS011;58554;52.006;5.926;2022-11-21T08:00:26;33.85;;;13.45;;
70908;SDS011;58554;52.006;5.926;2022-11-21T08:02:58;39.17;;;14.30;;
70908;SDS011;58554;52.006;5.926;2022-11-21T08:05:24;39.53;;;14.93;;
70908;SDS011;58554;52.006;5.926;2022-11-21T08:07:51;36.77;;;13.67;;
70908;SDS011;58554;52.006;5.926;2022-11-21T08:10:18;35.55;;;14.52;;
70908;SDS011;58554;52.006;5.926;2022-11-21T08:12:44;35.17;;;13.27;;
70908;SDS011;58554;52.006;5.926;2022-11-21T08:15:11;36.15;;;12.77;;
70908;SDS011;58554;52.006;5.926;2022-11-21T08:17:38;39.07;;;13.73;;
70908;SDS011;58554;52.006;5.926;2022-11-21T08:20:08;36.53;;;13.13;;
70908;SDS011;58554;52.006;5.926;2022-11-21T08:22:38;37.93;;;13.47;;
70908;SDS011;58554;52.006;5.926;2022-11-21T08:25:06;33.07;;;13.17;;
70908;SDS011;58554;52.006;5.926;2022-11-21T08:27:35;36.17;;;14.63;;
70908;SDS011;58554;52.006;5.926;2022-11-21T08:30:03;36.97;;;13.73;;
70908;SDS011;58554;52.006;5.926;2022-11-21T08:32:32;32.77;;;12.97;;
70908;SDS011;58554;52.006;5.926;2022-11-21T08:34:59;37.17;;;14.50;;
70908;SDS011;58554;52.006;5.926;2022-11-21T08:37:28;34.57;;;12.93;;
70908;SDS011;58554;52.006;5.926;2022-11-21T08:39:55;30.73;;;13.37;;
70908;SDS011;58554;52.006;5.926;2022-11-21T08:42:22;35.67;;;13.95;;
70908;SDS011;58554;52.006;5.926;2022-11-21T08:44:48;34.13;;;13.13;;
70908;SDS011;58554;52.006;5.926;2022-11-21T08:47:15;34.60;;;13.47;;
70908;SDS011;58554;52.006;5.926;2022-11-21T08:49:41;41.97;;;14.30;;
70908;SDS011;58554;52.006;5.926;2022-11-21T08:52:08;32.77;;;14.17;;
70908;SDS011;58554;52.006;5.926;2022-11-21T08:54:37;50.13;;;13.83;;
70908;SDS011;58554;52.006;5.926;2022-11-21T08:57:03;33.40;;;14.15;;
70908;SDS011;58554;52.006;5.926;2022-11-21T08:59:30;35.47;;;13.23;;
70908;SDS011;58554;52.006;5.926;2022-11-21T09:01:56;42.45;;;13.70;;
70908;SDS011;58554;52.006;5.926;2022-11-21T09:04:22;40.20;;;13.00;;
70908;SDS011;58554;52.006;5.926;2022-11-21T09:06:49;30.63;;;13.03;;
70908;SDS011;58554;52.006;5.926;2022-11-21T09:09:15;32.40;;;12.50;;
70908;SDS011;58554;52.006;5.926;2022-11-21T09:11:44;31.60;;;13.30;;
70908;SDS011;58554;52.006;5.926;2022-11-21T09:14:11;36.05;;;13.18;;
70908;SDS011;58554;52.006;5.926;2022-11-21T09:16:37;34.27;;;13.43;;
70908;SDS011;58554;52.006;5.926;2022-11-21T09:19:04;35.33;;;13.48;;
70908;SDS011;58554;52.006;5.926;2022-11-21T09:21:30;32.63;;;12.93;;
70908;SDS011;58554;52.006;5.926;2022-11-21T09:23:57;35.83;;;13.27;;
70908;SDS011;58554;52.006;5.926;2022-11-21T09:26:23;30.70;;;12.47;;
70908;SDS011;58554;52.006;5.926;2022-11-21T09:28:52;34.00;;;13.37;;
70908;SDS011;58554;52.006;5.926;2022-11-21T09:31:19;32.83;;;12.13;;
70908;SDS011;58554;52.006;5.926;2022-11-21T09:33:45;31.50;;;13.20;;
70908;SDS011;58554;52.006;5.926;2022-11-21T09:36:12;27.33;;;11.83;;
70908;SDS011;58554;52.006;5.926;2022-11-21T09:38:38;27.87;;;12.10;;
70908;SDS011;58554;52.006;5.926;2022-11-21T09:41:08;26.45;;;11.23;;
70908;SDS011;58554;52.006;5.926;2022-11-21T09:43:56;27.30;;;11.27;;
70908;SDS011;58554;52.006;5.926;2022-11-21T09:46:35;29.17;;;11.20;;
70908;SDS011;58554;52.006;5.926;2022-11-21T09:49:11;27.13;;;12.02;;
70908;SDS011;58554;52.006;5.926;2022-11-21T09:51:41;30.23;;;11.10;;
70908;SDS011;58554;52.006;5.926;2022-11-21T09:54:12;30.08;;;12.00;;
70908;SDS011;58554;52.006;5.926;2022-11-21T09:56:46;32.03;;;12.43;;
70908;SDS011;58554;52.006;5.926;2022-11-21T09:59:24;31.20;;;12.20;;
70908;SDS011;58554;52.006;5.926;2022-11-21T10:01:58;31.55;;;12.48;;
70908;SDS011;58554;52.006;5.926;2022-11-21T10:04:26;30.80;;;12.47;;
70908;SDS011;58554;52.006;5.926;2022-11-21T10:06:56;33.67;;;13.15;;
70908;SDS011;58554;52.006;5.926;2022-11-21T10:09:33;32.43;;;13.13;;
70908;SDS011;58554;52.006;5.926;2022-11-21T10:12:25;29.20;;;12.33;;
70908;SDS011;58554;52.006;5.926;2022-11-21T10:15:06;35.05;;;13.27;;
70908;SDS011;58554;52.006;5.926;2022-11-21T10:21:24;31.17;;;11.98;;
70908;SDS011;58554;52.006;5.926;2022-11-21T10:24:28;35.63;;;12.37;;
70908;SDS011;58554;52.006;5.926;2022-11-21T10:27:10;34.87;;;12.73;;
70908;SDS011;58554;52.006;5.926;2022-11-21T10:29:43;38.28;;;13.80;;
70908;SDS011;58554;52.006;5.926;2022-11-21T10:32:22;41.13;;;14.30;;
70908;SDS011;58554;52.006;5.926;2022-11-21T10:34:54;50.58;;;14.40;;
70908;SDS011;58554;52.006;5.926;2022-11-21T10:37:37;40.10;;;14.00;;
70908;SDS011;58554;52.006;5.926;2022-11-21T10:40:09;41.13;;;13.47;;
70908;SDS011;58554;52.006;5.926;2022-11-21T10:42:50;55.28;;;13.25;;
70908;SDS011;58554;52.006;5.926;2022-11-21T10:45:22;36.37;;;13.67;;
70908;SDS011;58554;52.006;5.926;2022-11-21T10:47:52;44.27;;;13.67;;
70908;SDS011;58554;52.006;5.926;2022-11-21T10:50:24;59.03;;;13.38;;
70908;SDS011;58554;52.006;5.926;2022-11-21T10:53:09;44.87;;;14.33;;
70908;SDS011;58554;52.006;5.926;2022-11-21T10:55:46;39.47;;;13.87;;
70908;SDS011;58554;52.006;5.926;2022-11-21T10:58:34;52.17;;;14.35;;
70908;SDS011;58554;52.006;5.926;2022-11-21T11:01:07;39.17;;;12.93;;
70908;SDS011;58554;52.006;5.926;2022-11-21T11:03:48;37.88;;;13.80;;
70908;SDS011;58554;52.006;5.926;2022-11-21T11:06:32;45.70;;;14.35;;
70908;SDS011;58554;52.006;5.926;2022-11-21T11:08:59;52.77;;;15.00;;
70908;SDS011;58554;52.006;5.926;2022-11-21T11:11:26;44.17;;;14.63;;
70908;SDS011;58554;52.006;5.926;2022-11-21T11:13:54;53.53;;;14.13;;
70908;SDS011;58554;52.006;5.926;2022-11-21T11:16:23;38.77;;;13.60;;
70908;SDS011;58554;52.006;5.926;2022-11-21T11:18:57;51.38;;;13.98;;
70908;SDS011;58554;52.006;5.926;2022-11-21T11:21:27;38.97;;;15.45;;
70908;SDS011;58554;52.006;5.926;2022-11-21T11:24:05;66.07;;;14.83;;
70908;SDS011;58554;52.006;5.926;2022-11-21T11:26:50;68.82;;;14.90;;
70908;SDS011;58554;52.006;5.926;2022-11-21T11:29:23;75.83;;;15.63;;
70908;SDS011;58554;52.006;5.926;2022-11-21T11:31:53;42.33;;;14.57;;
70908;SDS011;58554;52.006;5.926;2022-11-21T11:34:35;46.28;;;15.85;;
70908;SDS011;58554;52.006;5.926;2022-11-21T11:37:09;40.22;;;14.30;;
70908;SDS011;58554;52.006;5.926;2022-11-21T11:39:44;49.00;;;16.17;;
70908;SDS011;58554;52.006;5.926;2022-11-21T11:45:58;41.15;;;15.38;;
70908;SDS011;58554;52.006;5.926;2022-11-21T11:48:39;44.63;;;14.77;;
70908;SDS011;58554;52.006;5.926;2022-11-21T11:51:12;43.63;;;15.57;;
70908;SDS011;58554;52.006;5.926;2022-11-21T11:53:51;46.45;;;15.98;;
70908;SDS011;58554;52.006;5.926;2022-11-21T11:56:26;41.07;;;16.03;;
70908;SDS011;58554;52.006;5.926;2022-11-21T11:58:59;46.47;;;16.50;;
70908;SDS011;58554;52.006;5.926;2022-11-21T12:01:37;48.63;;;16.60;;
70908;SDS011;58554;52.006;5.926;2022-11-21T12:04:09;46.13;;;16.13;;
70908;SDS011;58554;52.006;5.926;2022-11-21T12:06:44;42.28;;;15.75;;
70908;SDS011;58554;52.006;5.926;2022-11-21T12:09:21;45.65;;;15.90;;
70908;SDS011;58554;52.006;5.926;2022-11-21T12:11:58;46.77;;;16.50;;
70908;SDS011;58554;52.006;5.926;2022-11-21T12:14:43;43.33;;;16.60;;
70908;SDS011;58554;52.006;5.926;2022-11-21T12:17:26;43.83;;;15.82;;
70908;SDS011;58554;52.006;5.926;2022-11-21T12:20:10;38.93;;;15.87;;
70908;SDS011;58554;52.006;5.926;2022-11-21T12:22:47;47.47;;;16.35;;
70908;SDS011;58554;52.006;5.926;2022-11-21T12:25:18;42.15;;;16.25;;
70908;SDS011;58554;52.006;5.926;2022-11-21T12:27:55;41.47;;;15.83;;
70908;SDS011;58554;52.006;5.926;2022-11-21T12:33:21;43.95;;;16.75;;
70908;SDS011;58554;52.006;5.926;2022-11-21T12:38:56;43.50;;;16.25;;
70908;SDS011;58554;52.006;5.926;2022-11-21T12:42:02;39.17;;;15.57;;
70908;SDS011;58554;52.006;5.926;2022-11-21T12:44:46;35.93;;;16.00;;
70908;SDS011;58554;52.006;5.926;2022-11-21T12:47:48;45.50;;;16.48;;
70908;SDS011;58554;52.006;5.926;2022-11-21T12:50:45;43.35;;;16.60;;
70908;SDS011;58554;52.006;5.926;2022-11-21T12:53:32;42.87;;;16.60;;
70908;SDS011;58554;52.006;5.926;2022-11-21T12:56:17;43.40;;;15.85;;
70908;SDS011;58554;52.006;5.926;2022-11-21T12:58:57;47.50;;;16.50;;
70908;SDS011;58554;52.006;5.926;2022-11-21T13:01:29;42.90;;;17.10;;
70908;SDS011;58554;52.006;5.926;2022-11-21T13:04:08;44.20;;;16.77;;
70908;SDS011;58554;52.006;5.926;2022-11-21T13:06:43;42.30;;;15.93;;
70908;SDS011;58554;52.006;5.926;2022-11-21T13:09:12;35.93;;;15.00;;
70908;SDS011;58554;52.006;5.926;2022-11-21T13:11:48;39.10;;;15.75;;
70908;SDS011;58554;52.006;5.926;2022-11-21T13:14:33;36.33;;;15.05;;
70908;SDS011;58554;52.006;5.926;2022-11-21T13:17:15;33.27;;;14.57;;
70908;SDS011;58554;52.006;5.926;2022-11-21T13:19:55;35.63;;;15.38;;
70908;SDS011;58554;52.006;5.926;2022-11-21T13:31:27;29.35;;;14.05;;
70908;SDS011;58554;52.006;5.926;2022-11-21T13:33:57;29.50;;;13.68;;
70908;SDS011;58554;52.006;5.926;2022-11-21T13:36:34;25.77;;;12.88;;
70908;SDS011;58554;52.006;5.926;2022-11-21T13:42:03;27.20;;;13.50;;
70908;SDS011;58554;52.006;5.926;2022-11-21T13:44:39;29.75;;;13.65;;
70908;SDS011;58554;52.006;5.926;2022-11-21T13:47:09;29.27;;;13.87;;
70908;SDS011;58554;52.006;5.926;2022-11-21T13:49:56;28.03;;;12.53;;
70908;SDS011;58554;52.006;5.926;2022-11-21T13:52:36;25.17;;;12.15;;
70908;SDS011;58554;52.006;5.926;2022-11-21T13:55:23;27.48;;;12.60;;
70908;SDS011;58554;52.006;5.926;2022-11-21T13:58:20;25.65;;;12.20;;
70908;SDS011;58554;52.006;5.926;2022-11-21T14:04:20;25.63;;;12.07;;
70908;SDS011;58554;52.006;5.926;2022-11-21T14:07:26;20.00;;;11.37;;
70908;SDS011;58554;52.006;5.926;2022-11-21T14:09:57;30.93;;;12.07;;
70908;SDS011;58554;52.006;5.926;2022-11-21T14:12:28;20.77;;;11.45;;
70908;SDS011;58554;52.006;5.926;2022-11-21T14:18:00;21.50;;;10.88;;
70908;SDS011;58554;52.006;5.926;2022-11-21T14:20:27;22.08;;;11.43;;
70908;SDS011;58554;52.006;5.926;2022-11-21T14:22:59;23.90;;;10.90;;
70908;SDS011;58554;52.006;5.926;2022-11-21T14:25:33;21.67;;;11.43;;
70908;SDS011;58554;52.006;5.926;2022-11-21T14:28:11;22.00;;;10.38;;
70908;SDS011;58554;52.006;5.926;2022-11-21T14:30:47;23.52;;;11.25;;
70908;SDS011;58554;52.006;5.926;2022-11-21T14:33:28;18.48;;;10.25;;
70908;SDS011;58554;52.006;5.926;2022-11-21T14:36:01;19.83;;;10.75;;
70908;SDS011;58554;52.006;5.926;2022-11-21T14:38:33;21.43;;;11.40;;
70908;SDS011;58554;52.006;5.926;2022-11-21T14:44:01;21.07;;;10.33;;
70908;SDS011;58554;52.006;5.926;2022-11-21T14:46:40;18.60;;;10.13;;
70908;SDS011;58554;52.006;5.926;2022-11-21T14:52:05;19.30;;;10.20;;
70908;SDS011;58554;52.006;5.926;2022-11-21T14:54:45;18.52;;;10.00;;
70908;SDS011;58554;52.006;5.926;2022-11-21T14:57:19;20.83;;;10.77;;
70908;SDS011;58554;52.006;5.926;2022-11-21T14:59:51;23.35;;;10.50;;
70908;SDS011;58554;52.006;5.926;2022-11-21T15:02:20;20.58;;;10.63;;
70908;SDS011;58554;52.006;5.926;2022-11-21T15:04:52;20.47;;;10.80;;
70908;SDS011;58554;52.006;5.926;2022-11-21T15:07:25;20.10;;;10.40;;
70908;SDS011;58554;52.006;5.926;2022-11-21T15:09:59;21.13;;;10.80;;
70908;SDS011;58554;52.006;5.926;2022-11-21T15:12:28;23.65;;;10.80;;
70908;SDS011;58554;52.006;5.926;2022-11-21T15:15:11;21.50;;;9.70;;
70908;SDS011;58554;52.006;5.926;2022-11-21T15:17:54;22.97;;;10.07;;
70908;SDS011;58554;52.006;5.926;2022-11-21T15:20:26;20.80;;;10.35;;